Time;durP1;ratioP1;P1;durP2;ratioP2;P2;SDS_P1;SDS_P2;PMS_P1;PMS_P2;Temp;Humidity;BMP_temperature;BMP_pressure;BME280_temperature;BME280_humidity;BME280_pressure;Samples;Min_cycle;Max_cycle;Signal;HPM_P1;HPM_P2
2021/01/30 00:04:23;;;;;;;2.60;0.30;;;8.30;99.90;;;;;;10234468;28;20059;-66
2021/01/30 00:09:26;;;;;;;1.98;0.43;;;8.20;99.90;;;;;;10230942;28;20113;-68
2021/01/30 00:14:38;;;;;;;1.25;0.30;;;8.20;99.90;;;;;;10231170;28;20054;-68
2021/01/30 00:19:43;;;;;;;3.17;0.30;;;8.20;99.90;;;;;;10216553;28;20710;-68
2021/01/30 00:24:46;;;;;;;4.60;0.40;;;8.10;99.90;;;;;;10220021;28;20055;-68
2021/01/30 00:29:49;;;;;;;3.03;0.40;;;8.10;99.90;;;;;;10227116;28;20051;-66
2021/01/30 00:34:50;;;;;;;2.22;0.75;;;8.10;99.90;;;;;;10231985;28;20066;-67
2021/01/30 00:39:53;;;;;;;3.40;0.47;;;8.10;99.90;;;;;;10232746;28;20110;-67
2021/01/30 00:44:55;;;;;;;2.83;0.73;;;8.00;99.90;;;;;;10224282;28;20063;-67
2021/01/30 00:49:56;;;;;;;1.83;0.50;;;8.10;99.90;;;;;;10237529;28;20982;-67
2021/01/30 00:54:57;;;;;;;3.92;1.15;;;8.10;99.90;;;;;;10221249;28;20062;-67
2021/01/30 00:59:58;;;;;;;2.53;0.70;;;8.20;99.90;;;;;;10236676;28;20054;-67
2021/01/30 01:04:59;;;;;;;3.58;0.70;;;8.20;99.90;;;;;;10226295;28;20498;-67
2021/01/30 01:10:01;;;;;;;4.47;0.80;;;8.20;99.90;;;;;;10225509;28;20055;-67
2021/01/30 01:15:04;;;;;;;1.92;0.40;;;8.20;99.90;;;;;;10239558;28;20442;-66
2021/01/30 01:20:09;;;;;;;2.53;0.45;;;8.20;99.90;;;;;;10210446;28;20090;-67
2021/01/30 01:25:10;;;;;;;2.75;0.40;;;8.20;99.90;;;;;;10224602;28;20062;-66
2021/01/30 01:30:13;;;;;;;3.03;0.40;;;8.20;99.90;;;;;;10222748;28;20055;-67
2021/01/30 01:35:17;;;;;;;0.80;0.45;;;8.20;99.90;;;;;;10234473;28;20106;-67
2021/01/30 01:40:43;;;;;;;3.38;0.55;;;8.00;99.90;;;;;;10229721;28;20754;-67
2021/01/30 01:45:57;;;;;;;2.30;0.50;;;8.00;99.90;;;;;;10218210;28;20055;-67
2021/01/30 01:51:02;;;;;;;2.15;0.60;;;8.00;99.90;;;;;;10235417;28;20122;-67
2021/01/30 01:56:16;;;;;;;4.70;0.47;;;8.00;99.90;;;;;;10226252;28;20050;-67
2021/01/30 02:01:18;;;;;;;1.00;0.40;;;7.90;99.90;;;;;;10165730;28;20043;-66
2021/01/30 02:06:20;;;;;;;6.90;0.50;;;7.90;99.90;;;;;;10219444;28;20059;-66
2021/01/30 02:11:21;;;;;;;11.25;1.33;;;7.80;99.90;;;;;;10220374;28;20058;-66
2021/01/30 02:16:22;;;;;;;2.05;0.98;;;7.80;99.90;;;;;;10220094;28;20055;-66
2021/01/30 02:21:52;;;;;;;7.43;1.33;;;7.80;99.90;;;;;;10225340;28;20157;-66
2021/01/30 02:27:22;;;;;;;3.08;1.52;;;7.70;99.90;;;;;;10169179;28;20054;-66
2021/01/30 02:33:07;;;;;;;7.38;0.80;;;7.80;99.90;;;;;;10128332;28;20509;-66
2021/01/30 02:38:21;;;;;;;4.95;0.93;;;7.70;99.90;;;;;;10162051;28;20047;-66
2021/01/30 02:43:30;;;;;;;4.65;0.50;;;7.70;99.90;;;;;;10214540;28;20481;-66
2021/01/30 02:48:37;;;;;;;2.90;0.50;;;7.60;99.90;;;;;;10225143;28;20138;-67
2021/01/30 02:53:47;;;;;;;3.15;0.47;;;7.60;99.90;;;;;;10220791;28;20102;-66
2021/01/30 02:59:11;;;;;;;2.70;0.30;;;7.60;99.90;;;;;;10228606;28;20062;-66
2021/01/30 03:04:25;;;;;;;2.10;1.90;;;7.50;99.90;;;;;;9986587;28;20050;-67
2021/01/30 03:09:34;;;;;;;2.13;0.40;;;7.50;99.90;;;;;;10149359;28;20047;-66
2021/01/30 03:14:45;;;;;;;3.38;0.82;;;7.50;99.90;;;;;;10213028;28;20049;-66
2021/01/30 03:19:46;;;;;;;2.00;0.40;;;7.50;99.90;;;;;;10231579;28;20047;-66
2021/01/30 03:24:48;;;;;;;2.47;0.30;;;7.50;99.90;;;;;;10214334;28;20634;-66
2021/01/30 03:29:50;;;;;;;3.67;0.28;;;7.50;99.90;;;;;;10217772;28;20058;-66
2021/01/30 03:34:53;;;;;;;4.35;1.20;;;7.50;99.90;;;;;;10220427;28;20122;-66
2021/01/30 03:39:54;;;;;;;1.63;0.20;;;7.40;99.90;;;;;;10224395;28;20082;-66
2021/01/30 03:44:55;;;;;;;1.98;0.30;;;7.30;99.90;;;;;;10217362;28;20051;-66
2021/01/30 03:49:56;;;;;;;4.93;0.50;;;7.30;99.90;;;;;;10216809;28;20149;-66
2021/01/30 03:54:58;;;;;;;1.02;0.38;;;7.20;99.90;;;;;;10209959;28;20094;-66
2021/01/30 03:59:59;;;;;;;9.45;1.83;;;7.20;99.90;;;;;;10212777;28;20068;-66
2021/01/30 04:05:00;;;;;;;4.95;0.30;;;7.00;99.90;;;;;;10216324;28;20122;-67
2021/01/30 04:10:03;;;;;;;13.35;1.65;;;7.00;99.90;;;;;;10222043;28;20062;-66
2021/01/30 04:15:05;;;;;;;1.80;0.30;;;6.90;99.90;;;;;;10214459;28;20085;-66
2021/01/30 04:20:06;;;;;;;3.58;0.50;;;6.90;99.90;;;;;;10222966;28;20047;-66
2021/01/30 04:25:09;;;;;;;0.90;0.40;;;7.00;99.90;;;;;;10209909;28;20446;-66
2021/01/30 04:30:14;;;;;;;3.40;0.55;;;7.00;99.90;;;;;;10216808;28;20090;-66
2021/01/30 04:35:18;;;;;;;3.08;0.40;;;7.10;99.90;;;;;;10218680;28;20545;-66
2021/01/30 04:40:32;;;;;;;5.13;0.40;;;7.10;99.90;;;;;;10223579;28;20059;-66
2021/01/30 04:46:00;;;;;;;2.30;0.25;;;7.10;99.90;;;;;;10218029;28;20051;-66
2021/01/30 04:51:10;;;;;;;3.00;0.30;;;7.10;99.90;;;;;;10158750;28;20113;-66
2021/01/30 04:56:32;;;;;;;3.33;0.30;;;7.10;99.90;;;;;;10217792;28;20051;-66
2021/01/30 05:01:54;;;;;;;2.28;0.22;;;7.10;99.90;;;;;;10217442;28;20458;-66
2021/01/30 05:07:07;;;;;;;4.43;0.50;;;7.10;99.90;;;;;;10135818;28;20043;-66
2021/01/30 05:12:16;;;;;;;3.65;0.50;;;7.10;99.90;;;;;;10211624;28;20054;-66
2021/01/30 05:17:23;;;;;;;3.95;0.30;;;7.10;99.90;;;;;;10221548;28;20485;-66
2021/01/30 05:22:34;;;;;;;2.60;0.22;;;7.10;99.90;;;;;;10222589;28;20051;-66
2021/01/30 05:27:57;;;;;;;3.45;0.40;;;7.10;99.90;;;;;;10226547;28;20142;-69
2021/01/30 05:33:27;;;;;;;1.55;0.30;;;7.10;99.90;;;;;;10173135;28;20063;-67
2021/01/30 05:39:05;;;;;;;3.30;0.32;;;7.10;99.90;;;;;;10182807;28;20051;-67
2021/01/30 05:44:20;;;;;;;0.88;0.30;;;7.10;99.90;;;;;;10180698;28;20492;-67
2021/01/30 05:49:29;;;;;;;3.40;0.22;;;7.10;99.90;;;;;;10146332;28;20733;-67
2021/01/30 05:54:30;;;;;;;2.45;0.43;;;7.10;99.90;;;;;;10240427;28;20888;-67
2021/01/30 05:59:34;;;;;;;1.40;0.30;;;7.10;99.90;;;;;;10215977;28;20098;-67
2021/01/30 06:04:35;;;;;;;0.90;0.20;;;7.10;99.90;;;;;;10224910;28;20043;-67
2021/01/30 06:09:40;;;;;;;3.60;1.75;;;7.00;99.90;;;;;;10225322;28;20047;-67
2021/01/30 06:14:41;;;;;;;5.65;0.40;;;7.00;99.90;;;;;;10222940;28;20098;-67
2021/01/30 06:19:43;;;;;;;2.63;0.35;;;7.00;99.90;;;;;;10217708;28;20073;-67
2021/01/30 06:24:45;;;;;;;3.40;0.50;;;7.00;99.90;;;;;;10220483;28;20052;-67
2021/01/30 06:29:50;;;;;;;3.42;0.40;;;6.90;99.90;;;;;;10233648;28;20062;-67
2021/01/30 06:35:13;;;;;;;0.75;0.30;;;6.90;99.90;;;;;;10211513;28;20122;-67
2021/01/30 06:40:22;;;;;;;2.33;0.40;;;6.90;99.90;;;;;;10219877;28;20490;-67
2021/01/30 06:45:37;;;;;;;1.95;0.30;;;6.80;99.90;;;;;;10210913;28;20047;-67
2021/01/30 06:50:42;;;;;;;1.77;0.30;;;6.80;99.90;;;;;;10217420;28;20122;-67
2021/01/30 06:55:44;;;;;;;3.08;0.77;;;6.70;99.90;;;;;;10225776;28;20442;-67
2021/01/30 07:00:47;;;;;;;5.68;0.60;;;6.80;99.90;;;;;;10219781;28;20058;-67
2021/01/30 07:06:07;;;;;;;3.38;1.00;;;6.80;99.90;;;;;;10227652;28;20054;-59
2021/01/30 07:11:38;;;;;;;3.78;0.70;;;6.90;99.90;;;;;;10221162;28;20051;-60
2021/01/30 07:17:01;;;;;;;2.30;0.50;;;6.80;99.90;;;;;;10216937;28;20568;-62
2021/01/30 07:22:11;;;;;;;4.43;1.95;;;6.80;99.90;;;;;;10215114;28;20051;-61
2021/01/30 07:27:29;;;;;;;3.40;0.80;;;6.70;99.90;;;;;;10213483;28;20066;-62
2021/01/30 07:32:36;;;;;;;0.68;0.40;;;6.70;99.90;;;;;;10214348;28;20656;-62
2021/01/30 07:38:14;;;;;;;2.45;0.30;;;6.60;99.90;;;;;;10221360;28;20051;-62
2021/01/30 07:43:22;;;;;;;2.63;0.40;;;6.60;99.90;;;;;;10160590;28;20579;-62
2021/01/30 07:48:31;;;;;;;3.40;0.70;;;6.60;99.90;;;;;;10215546;28;20054;-61
2021/01/30 07:53:32;;;;;;;1.15;0.38;;;6.60;99.90;;;;;;10227618;28;20044;-62
2021/01/30 07:58:48;;;;;;;1.40;0.70;;;6.50;99.90;;;;;;10220929;28;20055;-62
2021/01/30 08:04:13;;;;;;;2.03;1.10;;;5.70;99.90;;;;;;10138839;28;20048;-61
2021/01/30 08:09:30;;;;;;;2.45;1.65;;;5.10;99.90;;;;;;10217570;28;20051;-61
2021/01/30 08:14:49;;;;;;;2.88;1.48;;;4.60;99.90;;;;;;10220922;28;20081;-61
2021/01/30 08:20:23;;;;;;;2.70;1.60;;;4.00;99.90;;;;;;10169638;28;20050;-61
2021/01/30 08:25:45;;;;;;;4.27;2.30;;;3.50;99.90;;;;;;10125109;28;20062;-61
2021/01/30 08:30:51;;;;;;;6.25;3.38;;;3.30;99.90;;;;;;10230547;28;20070;-61
2021/01/30 08:35:55;;;;;;;10.03;4.63;;;3.00;99.90;;;;;;10221134;28;20402;-61
2021/01/30 08:41:31;;;;;;;8.20;4.25;;;2.70;99.90;;;;;;10221525;28;20055;-61
2021/01/30 08:46:37;;;;;;;8.60;4.45;;;2.50;99.90;;;;;;10098743;28;20126;-61
2021/01/30 08:51:39;;;;;;;8.60;4.63;;;2.50;99.90;;;;;;10229114;28;20051;-62
2021/01/30 08:56:51;;;;;;;6.28;3.33;;;2.40;99.90;;;;;;10236925;28;20204;-61
2021/01/30 09:01:52;;;;;;;9.88;4.45;;;2.20;99.90;;;;;;10238051;28;20067;-61
2021/01/30 09:06:55;;;;;;;10.00;4.93;;;2.20;99.90;;;;;;10233340;28;20047;-61
2021/01/30 09:12:05;;;;;;;9.85;5.22;;;2.10;99.90;;;;;;10228218;28;20401;-61
2021/01/30 09:17:28;;;;;;;7.82;4.75;;;2.20;99.90;;;;;;10234591;28;20154;-62
2021/01/30 09:22:50;;;;;;;8.57;4.57;;;2.20;99.90;;;;;;10188649;28;20556;-61
2021/01/30 09:28:07;;;;;;;7.78;4.25;;;2.40;99.90;;;;;;10160821;28;20051;-64
2021/01/30 09:33:13;;;;;;;7.50;4.23;;;2.40;99.90;;;;;;10229424;28;20461;-63
2021/01/30 09:38:32;;;;;;;5.75;3.83;;;2.30;99.90;;;;;;10218680;28;20397;-64
2021/01/30 09:43:33;;;;;;;5.07;3.67;;;2.30;99.90;;;;;;10207102;28;20054;-64
2021/01/30 09:48:36;;;;;;;6.70;3.70;;;2.40;99.90;;;;;;10193706;28;20079;-64
2021/01/30 09:53:41;;;;;;;7.20;4.28;;;2.40;99.90;;;;;;10228094;28;20055;-64
2021/01/30 09:58:46;;;;;;;6.45;4.13;;;2.40;99.90;;;;;;10214471;28;20079;-61
2021/01/30 10:03:47;;;;;;;7.10;4.60;;;2.10;99.90;;;;;;10217015;28;20062;-61
2021/01/30 10:08:48;;;;;;;8.32;5.57;;;2.00;99.90;;;;;;10239852;28;20063;-61
2021/01/30 10:13:58;;;;;;;7.20;5.35;;;2.00;99.90;;;;;;10241359;28;20117;-61
2021/01/30 10:19:07;;;;;;;6.45;4.90;;;1.90;99.90;;;;;;10237342;28;20047;-61
2021/01/30 10:24:16;;;;;;;9.65;5.68;;;1.90;99.90;;;;;;10242202;28;20070;-60
2021/01/30 10:29:20;;;;;;;8.55;5.80;;;1.80;99.90;;;;;;10246581;28;20525;-60
2021/01/30 10:34:50;;;;;;;9.75;5.80;;;1.80;99.90;;;;;;10234557;28;20066;-61
2021/01/30 10:40:05;;;;;;;9.90;6.25;;;1.90;99.90;;;;;;10181000;28;20055;-61
2021/01/30 10:45:21;;;;;;;9.48;6.22;;;1.90;99.90;;;;;;10229459;28;20055;-61
2021/01/30 10:50:34;;;;;;;8.10;5.68;;;2.00;99.90;;;;;;10177190;28;20055;-61
2021/01/30 10:55:37;;;;;;;8.27;4.82;;;2.00;99.90;;;;;;10250987;28;20051;-61
2021/01/30 11:00:39;;;;;;;8.68;5.80;;;2.00;99.90;;;;;;10239234;28;20051;-61
2021/01/30 11:05:40;;;;;;;8.18;5.55;;;2.10;99.90;;;;;;10234150;28;20055;-62
2021/01/30 11:10:44;;;;;;;8.13;4.45;;;2.10;99.90;;;;;;10228815;28;20065;-61
2021/01/30 11:15:48;;;;;;;11.48;5.25;;;2.10;99.90;;;;;;10233674;28;20051;-61
2021/01/30 11:20:49;;;;;;;7.60;5.32;;;2.00;99.90;;;;;;10227043;28;20107;-62
2021/01/30 11:25:50;;;;;;;9.38;5.75;;;2.00;99.90;;;;;;10212350;28;20483;-62
2021/01/30 11:30:51;;;;;;;8.70;4.88;;;2.10;99.90;;;;;;10228139;28;20102;-61
2021/01/30 11:35:54;;;;;;;7.10;5.20;;;2.10;99.90;;;;;;10212137;28;20075;-62
2021/01/30 11:40:58;;;;;;;7.80;5.57;;;2.20;99.90;;;;;;10246098;28;20898;-62
2021/01/30 11:45:59;;;;;;;9.65;6.82;;;2.20;99.90;;;;;;10219129;28;20054;-63
2021/01/30 11:51:01;;;;;;;8.73;5.13;;;2.30;99.90;;;;;;10224280;28;20518;-63
2021/01/30 11:56:02;;;;;;;18.55;7.10;;;2.30;99.90;;;;;;10230409;28;20130;-63
2021/01/30 12:01:04;;;;;;;8.23;6.03;;;2.20;99.90;;;;;;10234955;28;20062;-63
2021/01/30 12:06:05;;;;;;;8.85;5.18;;;2.20;99.90;;;;;;10223122;28;20054;-63
2021/01/30 12:11:06;;;;;;;5.88;4.57;;;2.30;99.90;;;;;;10239039;28;20109;-62
2021/01/30 12:16:08;;;;;;;7.75;4.70;;;2.30;99.90;;;;;;10229875;28;20058;-62
2021/01/30 12:21:09;;;;;;;7.00;3.88;;;2.40;99.90;;;;;;10242438;28;20146;-62
2021/01/30 12:26:13;;;;;;;6.68;4.13;;;2.40;99.90;;;;;;10229033;28;20109;-61
2021/01/30 12:31:14;;;;;;;5.03;3.53;;;2.40;99.90;;;;;;10233732;28;20058;-62
2021/01/30 12:36:15;;;;;;;6.10;4.22;;;2.40;99.90;;;;;;10240977;28;20055;-62
2021/01/30 12:41:17;;;;;;;5.07;3.22;;;2.40;99.90;;;;;;10233537;28;20054;-62
2021/01/30 12:46:18;;;;;;;4.55;2.92;;;2.40;99.90;;;;;;10238848;28;20054;-62
2021/01/30 12:51:20;;;;;;;5.03;3.72;;;2.30;99.90;;;;;;10240890;28;20071;-62
2021/01/30 12:56:21;;;;;;;5.40;3.30;;;2.30;99.90;;;;;;10239681;28;20047;-62
2021/01/30 13:01:22;;;;;;;9.40;5.50;;;2.30;99.90;;;;;;10240632;28;20050;-62
2021/01/30 13:06:24;;;;;;;4.78;3.45;;;2.20;99.90;;;;;;10224935;28;20110;-61
2021/01/30 13:11:26;;;;;;;6.13;3.58;;;2.20;99.90;;;;;;10236668;28;20078;-62
2021/01/30 13:16:28;;;;;;;3.53;2.80;;;2.20;99.90;;;;;;10234926;28;20047;-62
2021/01/30 13:21:32;;;;;;;4.57;3.17;;;2.20;99.90;;;;;;10236530;28;20047;-61
2021/01/30 13:26:40;;;;;;;2.80;2.05;;;2.30;99.90;;;;;;10234456;28;20087;-62
2021/01/30 13:31:47;;;;;;;3.25;2.20;;;2.30;99.90;;;;;;10236939;28;20050;-61
2021/01/30 13:36:52;;;;;;;;;;;2.20;99.90;;;;;;10226345;28;20117;-62
2021/01/30 13:41:55;;;;;;;4.55;2.78;;;2.10;99.90;;;;;;10232704;28;19933;-62
2021/01/30 13:46:56;;;;;;;3.92;2.88;;;2.10;99.90;;;;;;10233872;28;20051;-62
2021/01/30 13:51:57;;;;;;;2.95;2.15;;;2.10;99.90;;;;;;10231271;28;20050;-62
2021/01/30 13:56:58;;;;;;;5.50;3.58;;;2.00;99.90;;;;;;10227980;28;22309;-61
2021/01/30 14:01:59;;;;;;;5.40;3.65;;;2.00;99.90;;;;;;10239680;28;20499;-62
2021/01/30 14:07:01;;;;;;;4.85;2.97;;;1.90;99.90;;;;;;10242807;28;20055;-63
2021/01/30 14:12:02;;;;;;;5.38;3.22;;;1.90;99.90;;;;;;10238296;28;20530;-62
2021/01/30 14:17:03;;;;;;;4.60;3.00;;;1.90;99.90;;;;;;10228479;28;20134;-62
2021/01/30 14:22:05;;;;;;;4.18;2.97;;;1.80;99.90;;;;;;10243413;28;20428;-62
2021/01/30 14:27:06;;;;;;;4.10;2.75;;;1.90;99.90;;;;;;10235209;28;20047;-62
2021/01/30 14:32:07;;;;;;;4.18;3.25;;;1.70;99.90;;;;;;10227664;28;20140;-62
2021/01/30 14:37:09;;;;;;;5.25;2.65;;;1.80;99.90;;;;;;10230208;28;20046;-61
2021/01/30 14:42:10;;;;;;;5.72;3.47;;;1.80;99.90;;;;;;10230387;28;20706;-61
2021/01/30 14:47:17;;;;;;;4.30;3.67;;;1.80;99.90;;;;;;10221991;28;20057;-63
2021/01/30 14:52:18;;;;;;;6.38;3.08;;;1.70;99.90;;;;;;10228923;28;20051;-62
2021/01/30 14:57:19;;;;;;;6.18;3.65;;;1.70;99.90;;;;;;10233008;28;20050;-61
2021/01/30 15:02:21;;;;;;;7.15;3.50;;;1.60;99.90;;;;;;10238399;28;20402;-61
2021/01/30 15:07:23;;;;;;;5.22;2.60;;;1.60;99.90;;;;;;10227114;28;20914;-61
2021/01/30 15:12:25;;;;;;;6.10;3.95;;;1.50;99.90;;;;;;10233670;28;20143;-61
2021/01/30 15:17:26;;;;;;;7.80;4.03;;;1.60;99.90;;;;;;10235418;28;20509;-61
2021/01/30 15:22:28;;;;;;;7.40;3.45;;;1.50;99.90;;;;;;10226865;28;20048;-62
2021/01/30 15:27:29;;;;;;;10.35;4.55;;;1.40;99.90;;;;;;10225228;28;20063;-62
2021/01/30 15:32:31;;;;;;;6.25;4.30;;;1.40;99.90;;;;;;10203114;28;20078;-62
2021/01/30 15:37:33;;;;;;;5.68;3.60;;;1.30;99.90;;;;;;10229967;28;20059;-62
2021/01/30 15:42:34;;;;;;;7.22;4.18;;;1.30;99.90;;;;;;10227402;28;20489;-62
2021/01/30 15:47:35;;;;;;;9.07;5.25;;;1.30;99.90;;;;;;10220087;28;20461;-62
2021/01/30 15:52:37;;;;;;;11.27;5.85;;;1.30;99.90;;;;;;10222699;28;20066;-62
2021/01/30 15:57:38;;;;;;;9.88;5.47;;;1.20;99.90;;;;;;10223076;28;20054;-62
2021/01/30 16:02:40;;;;;;;10.98;5.55;;;1.20;99.90;;;;;;10228552;28;20493;-62
2021/01/30 16:07:41;;;;;;;9.68;6.10;;;1.20;99.90;;;;;;10226551;28;20489;-62
2021/01/30 16:12:44;;;;;;;10.07;5.60;;;1.20;99.90;;;;;;10245316;28;20066;-61
2021/01/30 16:17:45;;;;;;;8.23;5.40;;;1.20;99.90;;;;;;10229588;28;20133;-61
2021/01/30 16:22:47;;;;;;;8.10;5.15;;;1.20;99.90;;;;;;10232552;28;20059;-61
2021/01/30 16:27:49;;;;;;;9.05;5.65;;;1.10;99.90;;;;;;10219372;28;20058;-61
2021/01/30 16:32:51;;;;;;;8.95;5.10;;;1.20;99.90;;;;;;10220942;28;20055;-67
2021/01/30 16:37:52;;;;;;;8.35;4.38;;;1.10;99.90;;;;;;10223619;28;20076;-66
2021/01/30 16:42:54;;;;;;;6.85;3.90;;;1.10;99.90;;;;;;10214112;28;20055;-66
2021/01/30 16:47:55;;;;;;;11.27;4.38;;;1.10;99.90;;;;;;10217697;28;20075;-66
2021/01/30 16:52:57;;;;;;;8.57;4.40;;;1.10;99.90;;;;;;10223217;28;20047;-66
2021/01/30 16:57:58;;;;;;;7.95;4.13;;;1.00;99.90;;;;;;10238034;28;20054;-68
2021/01/30 17:03:01;;;;;;;6.50;3.83;;;1.10;99.90;;;;;;10207682;28;20106;-68
2021/01/30 17:08:03;;;;;;;5.90;3.63;;;1.10;99.90;;;;;;10220430;28;20043;-68
2021/01/30 17:13:14;;;;;;;10.35;4.20;;;1.00;99.90;;;;;;10220502;28;20064;-67
2021/01/30 17:18:16;;;;;;;8.27;4.32;;;1.00;99.90;;;;;;10236117;28;20121;-67
2021/01/30 17:23:18;;;;;;;5.70;3.80;;;1.00;99.90;;;;;;10227465;28;20058;-69
2021/01/30 17:28:19;;;;;;;7.75;4.55;;;1.00;99.90;;;;;;10211492;28;20055;-69
2021/01/30 17:33:22;;;;;;;11.07;6.90;;;1.00;99.90;;;;;;10245902;28;20046;-69
2021/01/30 17:38:23;;;;;;;8.82;5.28;;;1.00;99.90;;;;;;10222057;28;20062;-68
2021/01/30 17:43:24;;;;;;;6.30;3.97;;;1.00;99.90;;;;;;10223466;28;20063;-68
2021/01/30 17:48:26;;;;;;;8.57;4.68;;;1.10;99.90;;;;;;10237192;28;20043;-68
2021/01/30 17:53:27;;;;;;;7.00;3.97;;;1.00;99.90;;;;;;10238874;28;20082;-69
2021/01/30 17:58:29;;;;;;;9.63;4.60;;;1.10;99.90;;;;;;10240392;28;20051;-67
2021/01/30 18:03:30;;;;;;;8.70;3.70;;;1.10;99.90;;;;;;10226481;28;20390;-69
2021/01/30 18:08:32;;;;;;;10.15;4.97;;;1.10;99.90;;;;;;10246571;28;20090;-68
2021/01/30 18:13:34;;;;;;;5.80;2.92;;;1.20;99.90;;;;;;10225096;28;20697;-68
2021/01/30 18:18:35;;;;;;;6.75;4.60;;;1.20;99.90;;;;;;10234026;28;20054;-66
2021/01/30 18:23:36;;;;;;;5.53;3.00;;;1.10;99.90;;;;;;10227093;28;20077;-68
2021/01/30 18:28:37;;;;;;;7.35;3.80;;;1.20;99.90;;;;;;10235202;28;20047;-66
2021/01/30 18:33:39;;;;;;;10.52;4.00;;;1.20;99.90;;;;;;10218764;28;20062;-67
2021/01/30 18:38:40;;;;;;;6.28;3.83;;;1.10;99.90;;;;;;10222684;28;20090;-67
2021/01/30 18:43:41;;;;;;;7.85;4.07;;;1.20;99.90;;;;;;10227984;28;20062;-67
2021/01/30 18:48:42;;;;;;;8.55;4.53;;;1.20;99.90;;;;;;10236683;28;20105;-67
2021/01/30 18:53:43;;;;;;;7.57;4.28;;;1.20;99.90;;;;;;10224521;28;20078;-67
2021/01/30 18:58:45;;;;;;;6.15;3.97;;;1.20;99.90;;;;;;10248127;28;20478;-67
2021/01/30 19:03:46;;;;;;;7.82;3.90;;;1.10;99.90;;;;;;10230584;28;20481;-67
2021/01/30 19:08:48;;;;;;;9.55;4.28;;;1.10;99.90;;;;;;10244308;28;20110;-68
2021/01/30 19:13:49;;;;;;;7.50;4.60;;;1.10;99.90;;;;;;10222448;28;20055;-67
2021/01/30 19:18:50;;;;;;;8.13;4.13;;;1.40;99.90;;;;;;10225303;28;20512;-67
2021/01/30 19:23:52;;;;;;;6.68;4.13;;;1.20;99.90;;;;;;10225778;28;20184;-67
2021/01/30 19:28:53;;;;;;;8.20;4.05;;;1.20;99.90;;;;;;10233232;28;20058;-67
2021/01/30 19:33:56;;;;;;;9.73;3.80;;;1.10;99.90;;;;;;10247931;28;20047;-68
2021/01/30 19:38:58;;;;;;;8.20;4.07;;;1.10;99.90;;;;;;10233471;28;20518;-65
2021/01/30 19:43:59;;;;;;;6.25;3.38;;;1.10;99.90;;;;;;10238028;28;20054;-66
2021/01/30 19:49:00;;;;;;;7.78;4.13;;;1.10;99.90;;;;;;10232711;28;20055;-66
2021/01/30 19:54:02;;;;;;;5.90;3.15;;;1.00;99.90;;;;;;10228513;28;20067;-65
2021/01/30 19:59:03;;;;;;;6.80;4.35;;;1.00;99.90;;;;;;10239292;28;20055;-66
2021/01/30 20:04:04;;;;;;;8.07;4.65;;;1.00;99.90;;;;;;10228919;28;20505;-67
2021/01/30 20:09:05;;;;;;;5.57;3.88;;;1.10;99.90;;;;;;10242859;28;20497;-66
2021/01/30 20:14:07;;;;;;;6.80;4.13;;;1.10;99.90;;;;;;10232932;28;20117;-66
2021/01/30 20:19:08;;;;;;;8.45;3.08;;;1.10;99.90;;;;;;10226002;28;20043;-67
2021/01/30 20:24:09;;;;;;;7.20;4.10;;;1.00;99.90;;;;;;10223899;28;20054;-67
2021/01/30 20:29:10;;;;;;;6.47;3.60;;;1.00;99.90;;;;;;10204149;28;20090;-65
2021/01/30 20:34:12;;;;;;;9.40;4.20;;;1.00;99.90;;;;;;10222931;28;20184;-66
2021/01/30 20:39:13;;;;;;;7.45;4.45;;;1.00;99.90;;;;;;10225442;28;20043;-67
2021/01/30 20:44:14;;;;;;;7.25;3.95;;;1.00;99.90;;;;;;10233972;28;20051;-66
2021/01/30 20:49:15;;;;;;;9.32;4.10;;;1.00;99.90;;;;;;10241831;28;20042;-67
2021/01/30 20:54:17;;;;;;;6.50;3.83;;;0.90;99.90;;;;;;10238353;28;20035;-67
2021/01/30 20:59:18;;;;;;;8.63;3.97;;;0.90;99.90;;;;;;10247204;28;20051;-66
2021/01/30 21:04:20;;;;;;;7.75;4.40;;;0.90;99.90;;;;;;10229648;28;20050;-67
2021/01/30 21:09:21;;;;;;;11.05;5.40;;;0.90;99.90;;;;;;10238838;28;20059;-67
2021/01/30 21:14:23;;;;;;;10.23;5.20;;;1.00;99.90;;;;;;10217871;28;20047;-67
2021/01/30 21:19:24;;;;;;;8.50;4.70;;;1.00;99.90;;;;;;10232605;28;20046;-67
2021/01/30 21:24:27;;;;;;;9.77;4.35;;;0.90;99.90;;;;;;10226371;28;20783;-67
2021/01/30 21:29:28;;;;;;;9.15;4.80;;;0.90;99.90;;;;;;10247205;28;20042;-67
2021/01/30 21:34:29;;;;;;;10.25;5.20;;;0.90;99.90;;;;;;10231793;28;20550;-67
2021/01/30 21:39:30;;;;;;;8.05;4.22;;;0.80;99.90;;;;;;10218296;28;20066;-67
2021/01/30 21:44:32;;;;;;;9.52;4.25;;;0.80;99.90;;;;;;10236219;28;20051;-67
2021/01/30 21:49:34;;;;;;;9.32;5.47;;;0.80;99.90;;;;;;10237035;28;20051;-67
2021/01/30 21:54:35;;;;;;;9.63;4.43;;;0.80;99.90;;;;;;10228598;28;20047;-67
2021/01/30 21:59:36;;;;;;;7.38;4.07;;;0.80;99.90;;;;;;10250774;28;20086;-66
2021/01/30 22:04:37;;;;;;;5.47;3.70;;;0.80;99.90;;;;;;10235650;28;20039;-67
2021/01/30 22:09:39;;;;;;;8.88;4.10;;;0.80;99.90;;;;;;10222773;28;20043;-66
2021/01/30 22:14:40;;;;;;;11.40;5.10;;;0.80;99.90;;;;;;10230801;28;20059;-66
2021/01/30 22:19:41;;;;;;;8.85;3.97;;;0.80;99.90;;;;;;10241824;28;20059;-66
2021/01/30 22:24:44;;;;;;;7.05;4.28;;;0.80;99.90;;;;;;10240273;28;20050;-67
2021/01/30 22:29:45;;;;;;;9.40;4.05;;;0.90;99.90;;;;;;10236837;28;20109;-65
2021/01/30 22:34:46;;;;;;;7.45;3.88;;;0.80;99.90;;;;;;10230254;28;20051;-65
2021/01/30 22:39:47;;;;;;;7.60;3.78;;;0.80;99.90;;;;;;10248288;28;20051;-65
2021/01/30 22:44:49;;;;;;;5.10;3.50;;;0.80;99.90;;;;;;10233357;28;20102;-66
2021/01/30 22:49:50;;;;;;;7.03;3.97;;;0.80;99.90;;;;;;10238813;28;20058;-64
2021/01/30 22:54:52;;;;;;;10.25;3.70;;;0.80;99.90;;;;;;10220793;28;20059;-66
2021/01/30 22:59:53;;;;;;;7.30;4.60;;;0.80;99.90;;;;;;10236838;28;20054;-66
2021/01/30 23:04:55;;;;;;;8.50;4.70;;;0.90;99.90;;;;;;10253018;28;20054;-64
2021/01/30 23:10:00;;;;;;;8.55;4.28;;;0.90;99.90;;;;;;10233389;28;20062;-65
2021/01/30 23:15:02;;;;;;;10.18;4.85;;;0.80;99.90;;;;;;10233054;28;20067;-66
2021/01/30 23:20:09;;;;;;;11.27;5.60;;;0.80;99.90;;;;;;10224945;28;20047;-67
2021/01/30 23:25:20;;;;;;;9.43;4.38;;;0.80;99.90;;;;;;10227054;28;20049;-65
2021/01/30 23:30:24;;;;;;;10.80;5.57;;;0.80;99.90;;;;;;10228636;28;20078;-65
2021/01/30 23:35:27;;;;;;;10.45;4.88;;;0.90;99.90;;;;;;10238312;28;20053;-65
2021/01/30 23:40:33;;;;;;;9.05;5.20;;;0.80;99.90;;;;;;10239489;28;20134;-66
2021/01/30 23:45:35;;;;;;;10.00;5.13;;;0.80;99.90;;;;;;10226544;28;20074;-65
2021/01/30 23:50:42;;;;;;;11.00;5.75;;;0.80;99.90;;;;;;10223387;28;20052;-64
2021/01/30 23:55:43;;;;;;;10.03;5.30;;;0.80;99.90;;;;;;10218407;28;20047;-64
